Bonifati, Italy

9:35 PM CET on February 06, 2016 (GMT +0100)
Bisignano | | Change Station
CLOSE
Current Station
Personal Weather Station
Location: Bisignano, CALABRIA
Elevation: 738 ft
Nearby Weather Stations

Elev 738 ft 39.50 °N, 16.27 °E | Updated 8 seconds ago

Clear
Clear
45.1 °F
Feels Like 45 °F
N
1.8
Wind Variable Wind from SE
Gusts 3.1 mph

Today
High -- | Low -- °F
--% Chance of Precip.
Yesterday
High -- | Low -- °F
Precip. -- in
Pressure 30.42 in
Visibility -9999.0 miles
Clouds
Windchill 45 °F
Dew Point 28 °F
Humidity 51%
Rainfall 0.00 in
Snow Depth Not available.
6:59 AM 5:21 PM
Waning Crescent, 4% visible
METAR LICA 061950Z 09006KT CAVOK 03/01 Q1030
Pressure 30.42 in
Visibility -9999.0 miles
Clouds
Windchill 45 °F
Dew Point 28 °F
Humidity 51%
Rainfall 0.00 in
Snow Depth Not available.
6:59 AM 5:21 PM
Waning Crescent, 4% visible
METAR LICA 061950Z 09006KT CAVOK 03/01 Q1030

10-Day Weather Forecast

Almanac

Astronomy

Feb. 06, 2016 Rise Set
Actual Time
Civil Twilight
Nautical Twilight
Astronomical Twilight
Moon
Length of Visible Light
Length of Day
Tomorrow will be .
, % of the Moon is Illuminated

Today's Extremes

Country Highs Country Lows

Community

WunderPhotos

Upload Photos

1,891,046 photos uploaded!

WunderBlog® & News

Nearby

Air Quality

  Air Quality AQ Index Pollutant
Not available.

Snow Depth

Station Depth Elevation

Earthquake Activity

City Distance Mag. Time & Date
Minimum magnitude displayed is 2.5.

Coastal Water Temperatures

Place Temperature

Stations

Nearby Weather Stations

Station Location Temp. Windchill Dew Point Humidity Wind Precip. Elev Updated Type